sensor_id;sensor_type;location;lat;lon;timestamp;pressure;altitude;pressure_sealevel;temperature;humidity
16481;BME280;44634;54.110;12.138;2023-03-03T00:01:09;101942.34;;;3.99;100.00
16481;BME280;44634;54.110;12.138;2023-03-03T00:03:37;101941.59;;;3.54;100.00
16481;BME280;44634;54.110;12.138;2023-03-03T00:06:09;101929.19;;;4.00;100.00
16481;BME280;44634;54.110;12.138;2023-03-03T00:08:38;101930.28;;;3.34;100.00
16481;BME280;44634;54.110;12.138;2023-03-03T00:11:06;101903.56;;;3.68;100.00
16481;BME280;44634;54.110;12.138;2023-03-03T00:13:43;101907.91;;;4.28;100.00
16481;BME280;44634;54.110;12.138;2023-03-03T00:16:15;101925.41;;;4.07;100.00
16481;BME280;44634;54.110;12.138;2023-03-03T00:18:45;101926.59;;;4.21;100.00
16481;BME280;44634;54.110;12.138;2023-03-03T00:21:32;101927.50;;;4.20;100.00
16481;BME280;44634;54.110;12.138;2023-03-03T00:24:21;101914.41;;;3.99;100.00
16481;BME280;44634;54.110;12.138;2023-03-03T00:26:50;101906.00;;;3.93;100.00
16481;BME280;44634;54.110;12.138;2023-03-03T00:29:26;101911.81;;;3.99;100.00
16481;BME280;44634;54.110;12.138;2023-03-03T00:32:07;101904.72;;;4.01;100.00
16481;BME280;44634;54.110;12.138;2023-03-03T00:34:40;101918.41;;;4.08;100.00
16481;BME280;44634;54.110;12.138;2023-03-03T00:37:21;101918.13;;;4.14;100.00
16481;BME280;44634;54.110;12.138;2023-03-03T00:39:49;101908.78;;;3.88;100.00
16481;BME280;44634;54.110;12.138;2023-03-03T00:42:18;101911.94;;;3.96;100.00
16481;BME280;44634;54.110;12.138;2023-03-03T00:44:51;101905.66;;;4.00;100.00
16481;BME280;44634;54.110;12.138;2023-03-03T00:47:25;101908.16;;;3.83;100.00
16481;BME280;44634;54.110;12.138;2023-03-03T00:50:20;101882.38;;;4.33;100.00
16481;BME280;44634;54.110;12.138;2023-03-03T00:55:44;101872.94;;;4.10;100.00
16481;BME280;44634;54.110;12.138;2023-03-03T00:58:12;101869.47;;;4.10;100.00
16481;BME280;44634;54.110;12.138;2023-03-03T01:00:42;101863.84;;;4.38;100.00
16481;BME280;44634;54.110;12.138;2023-03-03T01:03:12;101847.41;;;4.72;100.00
16481;BME280;44634;54.110;12.138;2023-03-03T01:05:41;101863.34;;;4.30;100.00
16481;BME280;44634;54.110;12.138;2023-03-03T01:08:08;101862.63;;;4.26;100.00
16481;BME280;44634;54.110;12.138;2023-03-03T01:10:39;101860.94;;;4.25;100.00
16481;BME280;44634;54.110;12.138;2023-03-03T01:13:09;101849.38;;;4.10;100.00
16481;BME280;44634;54.110;12.138;2023-03-03T01:15:37;101847.09;;;4.03;100.00
16481;BME280;44634;54.110;12.138;2023-03-03T01:18:08;101847.91;;;4.24;100.00
16481;BME280;44634;54.110;12.138;2023-03-03T01:20:36;101835.75;;;4.23;100.00
16481;BME280;44634;54.110;12.138;2023-03-03T01:23:04;101835.84;;;4.01;100.00
16481;BME280;44634;54.110;12.138;2023-03-03T01:25:32;101835.91;;;3.40;100.00
16481;BME280;44634;54.110;12.138;2023-03-03T01:28:00;101827.13;;;3.20;100.00
16481;BME280;44634;54.110;12.138;2023-03-03T01:30:28;101812.38;;;4.18;100.00
16481;BME280;44634;54.110;12.138;2023-03-03T01:32:56;101816.06;;;4.33;100.00
16481;BME280;44634;54.110;12.138;2023-03-03T01:35:26;101806.94;;;4.41;100.00
16481;BME280;44634;54.110;12.138;2023-03-03T01:37:55;101812.31;;;4.57;100.00
16481;BME280;44634;54.110;12.138;2023-03-03T01:40:25;101825.44;;;4.74;100.00
16481;BME280;44634;54.110;12.138;2023-03-03T01:42:53;101825.75;;;4.68;100.00
16481;BME280;44634;54.110;12.138;2023-03-03T01:45:23;101828.81;;;4.95;100.00
16481;BME280;44634;54.110;12.138;2023-03-03T01:47:57;101839.56;;;4.53;100.00
16481;BME280;44634;54.110;12.138;2023-03-03T01:50:35;101849.09;;;3.57;100.00
16481;BME280;44634;54.110;12.138;2023-03-03T01:53:09;101844.81;;;3.76;100.00
16481;BME280;44634;54.110;12.138;2023-03-03T01:55:40;101835.53;;;4.08;100.00
16481;BME280;44634;54.110;12.138;2023-03-03T01:58:11;101838.31;;;4.04;100.00
16481;BME280;44634;54.110;12.138;2023-03-03T02:00:41;101831.06;;;4.48;100.00
16481;BME280;44634;54.110;12.138;2023-03-03T02:03:11;101839.28;;;4.22;100.00
16481;BME280;44634;54.110;12.138;2023-03-03T02:05:41;101830.06;;;4.32;100.00
16481;BME280;44634;54.110;12.138;2023-03-03T02:08:11;101829.00;;;3.98;100.00
16481;BME280;44634;54.110;12.138;2023-03-03T02:10:43;101824.72;;;3.77;100.00
16481;BME280;44634;54.110;12.138;2023-03-03T02:13:11;101810.59;;;3.81;100.00
16481;BME280;44634;54.110;12.138;2023-03-03T02:15:39;101803.03;;;4.31;100.00
16481;BME280;44634;54.110;12.138;2023-03-03T02:18:10;101808.84;;;4.57;100.00
16481;BME280;44634;54.110;12.138;2023-03-03T02:20:52;101815.50;;;4.64;100.00
16481;BME280;44634;54.110;12.138;2023-03-03T02:23:23;101819.28;;;4.21;100.00
16481;BME280;44634;54.110;12.138;2023-03-03T02:26:07;101816.53;;;4.03;100.00
16481;BME280;44634;54.110;12.138;2023-03-03T02:28:36;101817.28;;;4.26;100.00
16481;BME280;44634;54.110;12.138;2023-03-03T02:31:07;101814.97;;;4.20;100.00
16481;BME280;44634;54.110;12.138;2023-03-03T02:33:38;101812.03;;;4.63;100.00
16481;BME280;44634;54.110;12.138;2023-03-03T02:36:11;101831.88;;;4.50;100.00
16481;BME280;44634;54.110;12.138;2023-03-03T02:38:43;101843.16;;;4.32;100.00
16481;BME280;44634;54.110;12.138;2023-03-03T02:41:20;101846.13;;;4.05;100.00
16481;BME280;44634;54.110;12.138;2023-03-03T02:43:58;101855.28;;;4.34;100.00
16481;BME280;44634;54.110;12.138;2023-03-03T02:46:26;101835.34;;;4.51;100.00
16481;BME280;44634;54.110;12.138;2023-03-03T02:48:55;101843.50;;;3.66;100.00
16481;BME280;44634;54.110;12.138;2023-03-03T02:51:23;101821.25;;;4.34;100.00
16481;BME280;44634;54.110;12.138;2023-03-03T02:53:50;101831.44;;;4.22;100.00
16481;BME280;44634;54.110;12.138;2023-03-03T02:56:20;101827.69;;;4.27;100.00
16481;BME280;44634;54.110;12.138;2023-03-03T02:58:47;101833.31;;;4.18;100.00
16481;BME280;44634;54.110;12.138;2023-03-03T03:01:15;101849.34;;;3.92;100.00
16481;BME280;44634;54.110;12.138;2023-03-03T03:03:43;101835.63;;;3.86;100.00
16481;BME280;44634;54.110;12.138;2023-03-03T03:06:11;101834.13;;;3.81;100.00
16481;BME280;44634;54.110;12.138;2023-03-03T03:08:39;101821.84;;;4.02;100.00
16481;BME280;44634;54.110;12.138;2023-03-03T03:11:07;101816.75;;;3.99;100.00
16481;BME280;44634;54.110;12.138;2023-03-03T03:13:36;101790.09;;;4.47;100.00
16481;BME280;44634;54.110;12.138;2023-03-03T03:16:04;101815.00;;;4.18;100.00
16481;BME280;44634;54.110;12.138;2023-03-03T03:18:32;101821.50;;;3.70;100.00
16481;BME280;44634;54.110;12.138;2023-03-03T03:21:11;101808.44;;;3.70;100.00
16481;BME280;44634;54.110;12.138;2023-03-03T03:23:39;101806.41;;;3.77;100.00
16481;BME280;44634;54.110;12.138;2023-03-03T03:26:07;101808.47;;;2.65;100.00
16481;BME280;44634;54.110;12.138;2023-03-03T03:28:37;101774.41;;;2.89;100.00
16481;BME280;44634;54.110;12.138;2023-03-03T03:31:06;101772.28;;;2.98;100.00
16481;BME280;44634;54.110;12.138;2023-03-03T03:33:34;101772.25;;;2.56;100.00
16481;BME280;44634;54.110;12.138;2023-03-03T03:36:02;101773.47;;;2.69;100.00
16481;BME280;44634;54.110;12.138;2023-03-03T03:38:33;101764.75;;;2.49;100.00
16481;BME280;44634;54.110;12.138;2023-03-03T03:41:03;101772.22;;;2.36;100.00
16481;BME280;44634;54.110;12.138;2023-03-03T03:43:31;101772.94;;;2.39;100.00
16481;BME280;44634;54.110;12.138;2023-03-03T03:46:00;101765.53;;;2.51;100.00
16481;BME280;44634;54.110;12.138;2023-03-03T03:48:28;101780.88;;;2.80;100.00
16481;BME280;44634;54.110;12.138;2023-03-03T03:50:56;101776.88;;;2.72;100.00
16481;BME280;44634;54.110;12.138;2023-03-03T03:53:24;101775.25;;;2.47;100.00
16481;BME280;44634;54.110;12.138;2023-03-03T03:55:51;101779.44;;;2.51;100.00
16481;BME280;44634;54.110;12.138;2023-03-03T03:58:19;101774.03;;;2.78;100.00
16481;BME280;44634;54.110;12.138;2023-03-03T04:00:47;101779.19;;;2.35;100.00
16481;BME280;44634;54.110;12.138;2023-03-03T04:03:17;101781.09;;;2.96;100.00
16481;BME280;44634;54.110;12.138;2023-03-03T04:05:45;101767.59;;;2.43;100.00
16481;BME280;44634;54.110;12.138;2023-03-03T04:08:13;101764.72;;;2.71;100.00
16481;BME280;44634;54.110;12.138;2023-03-03T04:10:40;101763.28;;;2.20;100.00
16481;BME280;44634;54.110;12.138;2023-03-03T04:13:08;101763.97;;;2.47;100.00
16481;BME280;44634;54.110;12.138;2023-03-03T04:15:36;101759.91;;;2.61;100.00
16481;BME280;44634;54.110;12.138;2023-03-03T04:18:04;101767.41;;;2.02;100.00
16481;BME280;44634;54.110;12.138;2023-03-03T04:20:33;101778.28;;;2.58;100.00
16481;BME280;44634;54.110;12.138;2023-03-03T04:23:01;101763.28;;;2.20;100.00
16481;BME280;44634;54.110;12.138;2023-03-03T04:25:28;101764.25;;;2.17;100.00
16481;BME280;44634;54.110;12.138;2023-03-03T04:27:56;101762.44;;;2.63;100.00
16481;BME280;44634;54.110;12.138;2023-03-03T04:30:24;101746.84;;;2.39;100.00
16481;BME280;44634;54.110;12.138;2023-03-03T04:32:52;101748.28;;;2.89;100.00
16481;BME280;44634;54.110;12.138;2023-03-03T04:35:20;101745.22;;;3.21;100.00
16481;BME280;44634;54.110;12.138;2023-03-03T04:37:49;101755.69;;;2.79;100.00
16481;BME280;44634;54.110;12.138;2023-03-03T04:40:17;101747.50;;;2.87;100.00
16481;BME280;44634;54.110;12.138;2023-03-03T04:42:45;101745.19;;;2.59;100.00
16481;BME280;44634;54.110;12.138;2023-03-03T04:45:13;101748.75;;;3.20;100.00
16481;BME280;44634;54.110;12.138;2023-03-03T04:47:41;101755.94;;;2.51;100.00
16481;BME280;44634;54.110;12.138;2023-03-03T04:50:10;101753.63;;;2.44;100.00
16481;BME280;44634;54.110;12.138;2023-03-03T04:52:38;101757.63;;;2.52;100.00
16481;BME280;44634;54.110;12.138;2023-03-03T04:55:08;101746.91;;;3.22;100.00
16481;BME280;44634;54.110;12.138;2023-03-03T04:57:36;101766.50;;;2.70;100.00
16481;BME280;44634;54.110;12.138;2023-03-03T05:00:05;101763.28;;;2.63;100.00
16481;BME280;44634;54.110;12.138;2023-03-03T05:02:33;101760.97;;;2.56;100.00
16481;BME280;44634;54.110;12.138;2023-03-03T05:05:01;101756.03;;;2.70;100.00
16481;BME280;44634;54.110;12.138;2023-03-03T05:07:29;101762.91;;;2.73;100.00
16481;BME280;44634;54.110;12.138;2023-03-03T05:09:56;101758.34;;;2.78;100.00
16481;BME280;44634;54.110;12.138;2023-03-03T05:12:25;101758.13;;;2.18;100.00
16481;BME280;44634;54.110;12.138;2023-03-03T05:14:53;101764.59;;;2.08;100.00
16481;BME280;44634;54.110;12.138;2023-03-03T05:17:21;101760.00;;;3.01;100.00
16481;BME280;44634;54.110;12.138;2023-03-03T05:19:49;101764.09;;;2.86;100.00
16481;BME280;44634;54.110;12.138;2023-03-03T05:22:17;101770.34;;;2.61;100.00
16481;BME280;44634;54.110;12.138;2023-03-03T05:24:44;101769.28;;;2.44;100.00
16481;BME280;44634;54.110;12.138;2023-03-03T05:27:14;101773.25;;;2.54;100.00
16481;BME280;44634;54.110;12.138;2023-03-03T05:29:43;101761.84;;;2.34;100.00
16481;BME280;44634;54.110;12.138;2023-03-03T05:32:12;101768.75;;;2.57;100.00
16481;BME280;44634;54.110;12.138;2023-03-03T05:34:39;101767.81;;;2.58;100.00
16481;BME280;44634;54.110;12.138;2023-03-03T05:37:07;101766.50;;;2.70;100.00
16481;BME280;44634;54.110;12.138;2023-03-03T05:39:35;101766.44;;;2.72;100.00
16481;BME280;44634;54.110;12.138;2023-03-03T05:42:03;101774.75;;;2.59;100.00
16481;BME280;44634;54.110;12.138;2023-03-03T05:44:31;101767.41;;;2.02;100.00
16481;BME280;44634;54.110;12.138;2023-03-03T05:47:00;101768.81;;;1.87;100.00
16481;BME280;44634;54.110;12.138;2023-03-03T05:49:28;101774.28;;;2.50;100.00
16481;BME280;44634;54.110;12.138;2023-03-03T05:51:56;101760.50;;;2.46;100.00
16481;BME280;44634;54.110;12.138;2023-03-03T05:54:24;101771.91;;;1.75;100.00
16481;BME280;44634;54.110;12.138;2023-03-03T05:56:52;101772.47;;;2.52;100.00
16481;BME280;44634;54.110;12.138;2023-03-03T05:59:20;101760.66;;;2.20;100.00
16481;BME280;44634;54.110;12.138;2023-03-03T06:01:47;101758.44;;;1.86;100.00
16481;BME280;44634;54.110;12.138;2023-03-03T06:04:17;101774.19;;;2.73;100.00
16481;BME280;44634;54.110;12.138;2023-03-03T06:06:44;101756.09;;;3.11;100.00
16481;BME280;44634;54.110;12.138;2023-03-03T06:09:12;101765.41;;;2.32;100.00
16481;BME280;44634;54.110;12.138;2023-03-03T06:11:40;101770.25;;;1.96;100.00
16481;BME280;44634;54.110;12.138;2023-03-03T06:14:08;101772.50;;;2.28;100.00
16481;BME280;44634;54.110;12.138;2023-03-03T06:16:35;101783.50;;;2.13;100.00
16481;BME280;44634;54.110;12.138;2023-03-03T06:19:03;101786.69;;;1.98;100.00
16481;BME280;44634;54.110;12.138;2023-03-03T06:21:32;101808.13;;;1.83;100.00
16481;BME280;44634;54.110;12.138;2023-03-03T06:24:00;101810.25;;;2.85;100.00
16481;BME280;44634;54.110;12.138;2023-03-03T06:26:30;101790.84;;;2.71;100.00
16481;BME280;44634;54.110;12.138;2023-03-03T06:28:58;101785.59;;;2.27;100.00
16481;BME280;44634;54.110;12.138;2023-03-03T06:31:27;101788.38;;;2.88;100.00
16481;BME280;44634;54.110;12.138;2023-03-03T06:33:54;101774.72;;;2.61;100.00
16481;BME280;44634;54.110;12.138;2023-03-03T06:36:23;101766.81;;;3.05;100.00
16481;BME280;44634;54.110;12.138;2023-03-03T06:38:53;101763.16;;;2.66;100.00
16481;BME280;44634;54.110;12.138;2023-03-03T06:41:21;101768.81;;;2.11;100.00
16481;BME280;44634;54.110;12.138;2023-03-03T06:43:48;101778.34;;;2.79;100.00
16481;BME280;44634;54.110;12.138;2023-03-03T06:46:16;101775.66;;;2.58;100.00
16481;BME280;44634;54.110;12.138;2023-03-03T06:48:44;101774.44;;;2.67;100.00
16481;BME280;44634;54.110;12.138;2023-03-03T06:51:21;101772.91;;;3.05;100.00
16481;BME280;44634;54.110;12.138;2023-03-03T06:53:53;101772.94;;;3.04;100.00
16481;BME280;44634;54.110;12.138;2023-03-03T06:56:23;101771.81;;;2.89;100.00
16481;BME280;44634;54.110;12.138;2023-03-03T06:58:53;101774.81;;;2.80;100.00
16481;BME280;44634;54.110;12.138;2023-03-03T07:01:21;101775.72;;;3.21;100.00
16481;BME280;44634;54.110;12.138;2023-03-03T07:03:48;101781.84;;;3.20;100.00
16481;BME280;44634;54.110;12.138;2023-03-03T07:06:21;101782.03;;;2.95;100.00
16481;BME280;44634;54.110;12.138;2023-03-03T07:08:50;101778.06;;;3.47;100.00
16481;BME280;44634;54.110;12.138;2023-03-03T07:11:21;101783.63;;;3.40;100.00
16481;BME280;44634;54.110;12.138;2023-03-03T07:13:50;101784.25;;;3.65;100.00
16481;BME280;44634;54.110;12.138;2023-03-03T07:16:23;101779.28;;;4.17;100.00
16481;BME280;44634;54.110;12.138;2023-03-03T07:18:53;101773.19;;;4.16;100.00
16481;BME280;44634;54.110;12.138;2023-03-03T07:21:22;101793.03;;;3.83;100.00
16481;BME280;44634;54.110;12.138;2023-03-03T07:23:52;101786.69;;;4.45;100.00
16481;BME280;44634;54.110;12.138;2023-03-03T07:26:24;101809.25;;;3.91;100.00
16481;BME280;44634;54.110;12.138;2023-03-03T07:28:56;101822.13;;;3.36;100.00
16481;BME280;44634;54.110;12.138;2023-03-03T07:31:28;101809.06;;;3.96;100.00
16481;BME280;44634;54.110;12.138;2023-03-03T07:33:59;101791.78;;;4.48;100.00
16481;BME280;44634;54.110;12.138;2023-03-03T07:36:29;101802.00;;;4.35;100.00
16481;BME280;44634;54.110;12.138;2023-03-03T07:38:59;101809.91;;;4.53;100.00
16481;BME280;44634;54.110;12.138;2023-03-03T07:41:29;101810.63;;;4.37;100.00
16481;BME280;44634;54.110;12.138;2023-03-03T07:44:02;101822.72;;;4.21;100.00
16481;BME280;44634;54.110;12.138;2023-03-03T07:46:35;101813.78;;;4.99;100.00
16481;BME280;44634;54.110;12.138;2023-03-03T07:49:19;101815.31;;;5.03;100.00
16481;BME280;44634;54.110;12.138;2023-03-03T07:51:53;101829.75;;;5.46;100.00
16481;BME280;44634;54.110;12.138;2023-03-03T07:54:29;101843.34;;;5.54;100.00
16481;BME280;44634;54.110;12.138;2023-03-03T07:57:04;101851.25;;;4.27;100.00
16481;BME280;44634;54.110;12.138;2023-03-03T07:59:34;101837.00;;;4.70;100.00
16481;BME280;44634;54.110;12.138;2023-03-03T08:02:13;101828.59;;;5.34;100.00
16481;BME280;44634;54.110;12.138;2023-03-03T08:04:45;101835.59;;;4.99;100.00
16481;BME280;44634;54.110;12.138;2023-03-03T08:07:17;101828.00;;;5.29;100.00
16481;BME280;44634;54.110;12.138;2023-03-03T08:09:47;101821.09;;;5.61;100.00
16481;BME280;44634;54.110;12.138;2023-03-03T08:12:26;101828.28;;;5.58;100.00
16481;BME280;44634;54.110;12.138;2023-03-03T08:14:55;101826.28;;;5.63;100.00
16481;BME280;44634;54.110;12.138;2023-03-03T08:17:30;101821.53;;;5.36;100.00
16481;BME280;44634;54.110;12.138;2023-03-03T08:22:50;101796.44;;;5.14;100.00
16481;BME280;44634;54.110;12.138;2023-03-03T08:25:18;101801.63;;;5.50;100.00
16481;BME280;44634;54.110;12.138;2023-03-03T08:27:47;101804.25;;;5.50;100.00
16481;BME280;44634;54.110;12.138;2023-03-03T08:30:15;101797.31;;;5.82;100.00
16481;BME280;44634;54.110;12.138;2023-03-03T08:32:43;101793.25;;;5.93;100.00
16481;BME280;44634;54.110;12.138;2023-03-03T08:35:11;101791.72;;;6.05;100.00
16481;BME280;44634;54.110;12.138;2023-03-03T08:37:39;101799.78;;;6.49;100.00
16481;BME280;44634;54.110;12.138;2023-03-03T08:40:08;101799.66;;;6.37;100.00
16481;BME280;44634;54.110;12.138;2023-03-03T08:42:36;101800.03;;;6.61;100.00
16481;BME280;44634;54.110;12.138;2023-03-03T08:45:06;101804.25;;;6.95;100.00
16481;BME280;44634;54.110;12.138;2023-03-03T08:47:33;101807.22;;;5.59;100.00
16481;BME280;44634;54.110;12.138;2023-03-03T08:50:01;101786.50;;;6.68;100.00
16481;BME280;44634;54.110;12.138;2023-03-03T08:52:29;101791.41;;;6.59;100.00
16481;BME280;44634;54.110;12.138;2023-03-03T08:54:57;101789.44;;;6.46;100.00
16481;BME280;44634;54.110;12.138;2023-03-03T08:57:25;101802.56;;;6.62;100.00
16481;BME280;44634;54.110;12.138;2023-03-03T08:59:52;101780.22;;;6.55;100.00
16481;BME280;44634;54.110;12.138;2023-03-03T09:02:21;101789.81;;;6.24;100.00
16481;BME280;44634;54.110;12.138;2023-03-03T09:04:49;101795.78;;;6.74;100.00
16481;BME280;44634;54.110;12.138;2023-03-03T09:07:17;101807.72;;;6.79;100.00
16481;BME280;44634;54.110;12.138;2023-03-03T09:09:45;101802.28;;;7.28;100.00
16481;BME280;44634;54.110;12.138;2023-03-03T09:12:16;101809.69;;;6.76;100.00
16481;BME280;44634;54.110;12.138;2023-03-03T09:14:45;101816.84;;;7.04;100.00
16481;BME280;44634;54.110;12.138;2023-03-03T09:17:27;101814.56;;;7.13;100.00
16481;BME280;44634;54.110;12.138;2023-03-03T09:19:59;101806.13;;;7.67;100.00
16481;BME280;44634;54.110;12.138;2023-03-03T09:22:35;101794.38;;;7.72;100.00
16481;BME280;44634;54.110;12.138;2023-03-03T09:25:16;101819.19;;;7.24;100.00
16481;BME280;44634;54.110;12.138;2023-03-03T09:27:46;101818.81;;;7.74;100.00
16481;BME280;44634;54.110;12.138;2023-03-03T09:30:28;101803.31;;;7.26;100.00
16481;BME280;44634;54.110;12.138;2023-03-03T09:32:58;101810.94;;;7.89;100.00
16481;BME280;44634;54.110;12.138;2023-03-03T09:35:33;101828.88;;;7.68;100.00
16481;BME280;44634;54.110;12.138;2023-03-03T09:38:15;101829.34;;;7.89;100.00
16481;BME280;44634;54.110;12.138;2023-03-03T09:40:59;101857.56;;;7.72;100.00
16481;BME280;44634;54.110;12.138;2023-03-03T09:43:36;101837.31;;;7.59;100.00
16481;BME280;44634;54.110;12.138;2023-03-03T09:46:11;101855.41;;;8.07;100.00
16481;BME280;44634;54.110;12.138;2023-03-03T09:48:52;101896.53;;;8.10;100.00
16481;BME280;44634;54.110;12.138;2023-03-03T09:51:37;101879.63;;;8.43;100.00
16481;BME280;44634;54.110;12.138;2023-03-03T09:54:19;101934.69;;;8.61;100.00
16481;BME280;44634;54.110;12.138;2023-03-03T09:56:55;101967.47;;;9.13;100.00
16481;BME280;44634;54.110;12.138;2023-03-03T09:59:38;102018.41;;;9.42;100.00
16481;BME280;44634;54.110;12.138;2023-03-03T10:02:34;102060.59;;;9.56;100.00
16481;BME280;44634;54.110;12.138;2023-03-03T10:05:13;102059.28;;;10.30;100.00
16481;BME280;44634;54.110;12.138;2023-03-03T10:07:53;102073.63;;;9.45;100.00
16481;BME280;44634;54.110;12.138;2023-03-03T10:10:35;102032.69;;;8.97;100.00
16481;BME280;44634;54.110;12.138;2023-03-03T10:13:14;102041.59;;;9.22;100.00
16481;BME280;44634;54.110;12.138;2023-03-03T10:15:57;102050.69;;;9.87;100.00
16481;BME280;44634;54.110;12.138;2023-03-03T10:18:38;102105.97;;;11.07;100.00
16481;BME280;44634;54.110;12.138;2023-03-03T10:21:11;102137.00;;;10.92;100.00
16481;BME280;44634;54.110;12.138;2023-03-03T10:23:54;102156.97;;;11.47;100.00
16481;BME280;44634;54.110;12.138;2023-03-03T10:29:41;102162.53;;;9.59;100.00
16481;BME280;44634;54.110;12.138;2023-03-03T10:32:39;102147.84;;;9.40;100.00
16481;BME280;44634;54.110;12.138;2023-03-03T10:35:24;102117.03;;;9.12;100.00
16481;BME280;44634;54.110;12.138;2023-03-03T10:38:07;102126.44;;;9.16;100.00
16481;BME280;44634;54.110;12.138;2023-03-03T10:40:44;102127.47;;;9.00;100.00
16481;BME280;44634;54.110;12.138;2023-03-03T10:43:41;102140.09;;;9.51;100.00
16481;BME280;44634;54.110;12.138;2023-03-03T10:46:26;102128.44;;;9.13;100.00
16481;BME280;44634;54.110;12.138;2023-03-03T10:49:06;102146.22;;;9.23;100.00
16481;BME280;44634;54.110;12.138;2023-03-03T10:51:45;102170.22;;;8.90;100.00
16481;BME280;44634;54.110;12.138;2023-03-03T10:54:29;102140.88;;;8.67;100.00
16481;BME280;44634;54.110;12.138;2023-03-03T10:57:11;102129.91;;;8.44;100.00
16481;BME280;44634;54.110;12.138;2023-03-03T10:59:55;102107.22;;;8.42;100.00
16481;BME280;44634;54.110;12.138;2023-03-03T11:02:31;102103.13;;;8.36;100.00
16481;BME280;44634;54.110;12.138;2023-03-03T11:05:18;102086.69;;;8.17;100.00
16481;BME280;44634;54.110;12.138;2023-03-03T11:07:51;102099.16;;;7.83;100.00
16481;BME280;44634;54.110;12.138;2023-03-03T11:10:36;102086.41;;;7.75;100.00
16481;BME280;44634;54.110;12.138;2023-03-03T11:13:16;102070.03;;;7.55;100.00
16481;BME280;44634;54.110;12.138;2023-03-03T11:16:04;102055.91;;;6.75;100.00
16481;BME280;44634;54.110;12.138;2023-03-03T11:18:46;102021.66;;;6.44;100.00
16481;BME280;44634;54.110;12.138;2023-03-03T11:21:22;102020.84;;;6.26;100.00
16481;BME280;44634;54.110;12.138;2023-03-03T11:23:59;101966.81;;;6.20;100.00
16481;BME280;44634;54.110;12.138;2023-03-03T11:26:59;101954.38;;;6.41;100.00
16481;BME280;44634;54.110;12.138;2023-03-03T11:29:42;101954.78;;;6.49;100.00
16481;BME280;44634;54.110;12.138;2023-03-03T11:32:20;101966.22;;;6.81;100.00
16481;BME280;44634;54.110;12.138;2023-03-03T11:34:59;101968.38;;;6.57;100.00
16481;BME280;44634;54.110;12.138;2023-03-03T11:37:37;101969.31;;;6.56;100.00
16481;BME280;44634;54.110;12.138;2023-03-03T11:40:13;101961.53;;;6.71;100.00
16481;BME280;44634;54.110;12.138;2023-03-03T11:42:53;101950.50;;;6.64;100.00
16481;BME280;44634;54.110;12.138;2023-03-03T11:45:28;101956.97;;;7.06;100.00
16481;BME280;44634;54.110;12.138;2023-03-03T11:48:02;101972.88;;;6.55;100.00
16481;BME280;44634;54.110;12.138;2023-03-03T11:50:35;101937.50;;;6.12;100.00
16481;BME280;44634;54.110;12.138;2023-03-03T11:53:21;101934.41;;;5.87;100.00
16481;BME280;44634;54.110;12.138;2023-03-03T11:55:54;101900.41;;;5.49;100.00
16481;BME280;44634;54.110;12.138;2023-03-03T11:58:27;101878.75;;;5.80;100.00
16481;BME280;44634;54.110;12.138;2023-03-03T12:00:59;101875.81;;;6.37;100.00
16481;BME280;44634;54.110;12.138;2023-03-03T12:03:33;101884.53;;;5.87;100.00
16481;BME280;44634;54.110;12.138;2023-03-03T12:06:12;101861.91;;;5.84;100.00
16481;BME280;44634;54.110;12.138;2023-03-03T12:09:00;101838.84;;;5.91;100.00
16481;BME280;44634;54.110;12.138;2023-03-03T12:11:33;101813.34;;;5.93;100.00
16481;BME280;44634;54.110;12.138;2023-03-03T12:14:13;101825.50;;;5.95;100.00
16481;BME280;44634;54.110;12.138;2023-03-03T12:16:51;101807.69;;;5.67;100.00
16481;BME280;44634;54.110;12.138;2023-03-03T12:19:40;101805.56;;;5.91;100.00
16481;BME280;44634;54.110;12.138;2023-03-03T12:22:20;101825.16;;;4.81;100.00
16481;BME280;44634;54.110;12.138;2023-03-03T12:25:03;101802.53;;;5.66;100.00
16481;BME280;44634;54.110;12.138;2023-03-03T12:27:42;101794.78;;;5.80;100.00
16481;BME280;44634;54.110;12.138;2023-03-03T12:30:19;101795.94;;;5.75;100.00
16481;BME280;44634;54.110;12.138;2023-03-03T12:33:10;101808.28;;;5.90;100.00
16481;BME280;44634;54.110;12.138;2023-03-03T12:35:43;101814.00;;;6.14;100.00
16481;BME280;44634;54.110;12.138;2023-03-03T12:38:24;101820.06;;;5.99;100.00
16481;BME280;44634;54.110;12.138;2023-03-03T12:40:59;101826.69;;;5.55;100.00
16481;BME280;44634;54.110;12.138;2023-03-03T12:43:39;101804.97;;;5.69;100.00
16481;BME280;44634;54.110;12.138;2023-03-03T12:46:19;101819.16;;;6.00;100.00
16481;BME280;44634;54.110;12.138;2023-03-03T12:48:54;101820.47;;;5.74;100.00
16481;BME280;44634;54.110;12.138;2023-03-03T12:51:35;101808.25;;;5.22;100.00
16481;BME280;44634;54.110;12.138;2023-03-03T12:54:19;101799.06;;;5.99;100.00
16481;BME280;44634;54.110;12.138;2023-03-03T12:56:53;101796.28;;;6.02;100.00
16481;BME280;44634;54.110;12.138;2023-03-03T12:59:32;101798.94;;;6.49;100.00
16481;BME280;44634;54.110;12.138;2023-03-03T13:02:19;101818.16;;;6.18;100.00
16481;BME280;44634;54.110;12.138;2023-03-03T13:05:01;101816.31;;;6.36;100.00
16481;BME280;44634;54.110;12.138;2023-03-03T13:07:34;101815.72;;;6.46;100.00
16481;BME280;44634;54.110;12.138;2023-03-03T13:10:13;101816.25;;;6.37;100.00
16481;BME280;44634;54.110;12.138;2023-03-03T13:12:48;101817.41;;;6.63;100.00
16481;BME280;44634;54.110;12.138;2023-03-03T13:15:21;101808.44;;;6.36;100.00
16481;BME280;44634;54.110;12.138;2023-03-03T13:18:14;101807.66;;;6.65;100.00